Austin, Texas
Traffic Map
Current Weather Conditions
Austin, Texas
Clear
Clear
24°
Feels Like: 24°
Wind Chill: 24° Ceiling: Unl
Heat Index: 24° Visibility: 10mi
Dew Point: Wind: 3mph
Humidity: 31% Direction: 120° (ESE)
Pressure: 30.16in Gusts: 0mph
Raw Report DataKATT 172251Z AUTO 12003KT 10SM CLR 24/06 A3016 RMK AO2 SLP207 T02440061
Traffic Incident Summary
Active as of:
Severity:
Category:
InformationThere was an issue retrieving the traffic information for this location. Please try a different location or try again shortly.
Advertisements